Time;durP1;ratioP1;P1;durP2;ratioP2;P2;SDS_P1;SDS_P2;PMS_P1;PMS_P2;Temp;Humidity;BMP_temperature;BMP_pressure;BME280_temperature;BME280_humidity;BME280_pressure;Samples;Min_cycle;Max_cycle;Signal;HPM_P1;HPM_P2
2023/02/05 00:00:43;;;;;;;;;;;1.10;90.90;;;;;;4966043;28;19913;-80
2023/02/05 00:03:09;;;;;;;;;;;1.10;90.90;;;;;;4971527;28;19909;-81
2023/02/05 00:05:34;;;;;;;;;;;1.10;90.80;;;;;;5007301;28;19910;-80
2023/02/05 00:08:00;;;;;;;;;;;1.10;90.70;;;;;;5012074;28;19910;-80
2023/02/05 00:10:26;;;;;;;;;;;1.00;91.00;;;;;;5019232;28;19936;-78
2023/02/05 00:12:51;;;;;;;;;;;1.00;90.70;;;;;;5036318;28;19925;-81
2023/02/05 00:15:17;;;;;;;;;;;1.00;90.70;;;;;;5016773;28;19924;-82
2023/02/05 00:17:42;;;;;;;;;;;0.90;90.80;;;;;;5004061;28;19910;-80
2023/02/05 00:20:08;;;;;;;;;;;0.90;90.80;;;;;;5013302;28;19909;-80
2023/02/05 00:22:34;;;;;;;;;;;0.90;90.90;;;;;;4984246;28;20378;-81
2023/02/05 00:24:59;;;;;;;;;;;0.90;90.90;;;;;;4980847;28;19910;-81
2023/02/05 00:27:25;;;;;;;;;;;0.90;91.00;;;;;;4980618;28;20046;-83
2023/02/05 00:29:50;;;;;;;;;;;0.90;91.00;;;;;;4980574;28;19914;-81
2023/02/05 00:32:16;;;;;;;;;;;0.90;91.00;;;;;;4981238;28;19910;-82
2023/02/05 00:34:41;;;;;;;;;;;1.00;91.10;;;;;;4981413;28;19917;-82
2023/02/05 00:37:07;;;;;;;;;;;1.00;91.00;;;;;;4981191;28;19910;-82
2023/02/05 00:39:32;;;;;;;;;;;1.10;90.90;;;;;;5009476;28;19921;-80
2023/02/05 00:41:58;;;;;;;;;;;1.10;90.80;;;;;;5033240;28;19929;-80
2023/02/05 00:44:23;;;;;;;;;;;1.10;90.70;;;;;;4999883;28;19969;-80
2023/02/05 00:46:49;;;;;;;;;;;1.20;90.70;;;;;;5011063;28;20062;-79
2023/02/05 00:49:14;;;;;;;;;;;1.20;90.70;;;;;;4988520;28;19921;-80
2023/02/05 00:51:40;;;;;;;;;;;1.20;90.60;;;;;;5007664;28;20370;-80
2023/02/05 00:54:07;;;;;;;;;;;1.30;90.60;;;;;;4992963;28;19910;-81
2023/02/05 00:56:32;;;;;;;;;;;1.20;90.70;;;;;;5009873;28;19909;-80
2023/02/05 00:58:58;;;;;;;;;;;1.20;90.80;;;;;;4992827;28;19989;-79
2023/02/05 01:01:24;;;;;;;;;;;1.20;90.90;;;;;;5006183;28;19918;-82
2023/02/05 01:03:50;;;;;;;;;;;1.10;91.00;;;;;;5026398;28;19969;-78
2023/02/05 01:06:15;;;;;;;;;;;1.10;91.10;;;;;;5009229;28;19909;-80
2023/02/05 01:08:41;;;;;;;;;;;1.10;91.10;;;;;;5015333;28;19925;-78
2023/02/05 01:11:07;;;;;;;;;;;1.00;91.20;;;;;;5000583;28;19914;-79
2023/02/05 01:13:33;;;;;;;;;;;0.90;91.30;;;;;;5000904;28;19914;-78
2023/02/05 01:15:58;;;;;;;;;;;0.90;91.50;;;;;;5031090;28;19939;-78
2023/02/05 01:18:24;;;;;;;;;;;0.80;91.70;;;;;;5032948;28;19909;-79
2023/02/05 01:20:50;;;;;;;;;;;0.80;91.90;;;;;;5015780;28;19909;-79
2023/02/05 01:23:16;;;;;;;;;;;0.80;92.10;;;;;;5030867;28;19910;-78
2023/02/05 01:25:41;;;;;;;;;;;0.80;92.30;;;;;;5034037;28;19945;-78
2023/02/05 01:28:07;;;;;;;;;;;0.70;92.50;;;;;;5033822;28;19917;-78
2023/02/05 01:30:33;;;;;;;;;;;0.70;92.90;;;;;;5033402;28;19932;-78
2023/02/05 01:32:58;;;;;;;;;;;0.70;93.20;;;;;;5017019;28;19965;-78
2023/02/05 01:35:24;;;;;;;;;;;0.70;93.50;;;;;;5034096;28;19907;-78
2023/02/05 01:37:49;;;;;;;;;;;0.60;93.60;;;;;;5035063;28;19981;-78
2023/02/05 01:40:15;;;;;;;;;;;0.60;93.80;;;;;;5017442;28;19998;-79
2023/02/05 01:42:41;;;;;;;;;;;0.50;94.00;;;;;;5035143;28;20062;-80
2023/02/05 01:45:22;;;;;;;;;;;0.50;94.30;;;;;;5036443;28;19913;-79
2023/02/05 01:47:48;;;;;;;;;;;0.40;94.60;;;;;;5019802;28;19910;-80
2023/02/05 01:50:15;;;;;;;;;;;0.40;94.80;;;;;;5036873;28;19916;-78
2023/02/05 01:52:40;;;;;;;;;;;0.40;95.00;;;;;;5036961;28;19978;-79
2023/02/05 01:55:06;;;;;;;;;;;0.40;95.20;;;;;;5037116;28;19902;-79
2023/02/05 01:57:32;;;;;;;;;;;0.40;95.30;;;;;;5036885;28;19961;-79
2023/02/05 01:59:58;;;;;;;;;;;0.30;95.20;;;;;;5037137;28;19913;-78
2023/02/05 02:02:24;;;;;;;;;;;0.40;95.30;;;;;;5033315;28;19913;-78
2023/02/05 02:04:52;;;;;;;;;;;0.30;95.20;;;;;;5031394;28;19907;-78
2023/02/05 02:07:20;;;;;;;;;;;0.30;95.40;;;;;;5037753;28;19901;-80
2023/02/05 02:09:46;;;;;;;;;;;0.30;95.50;;;;;;5020425;28;19926;-78
2023/02/05 02:12:13;;;;;;;;;;;0.30;95.60;;;;;;5029360;28;19917;-78
2023/02/05 02:14:39;;;;;;;;;;;0.30;95.60;;;;;;5011550;28;19921;-78
2023/02/05 02:17:06;;;;;;;;;;;0.20;95.70;;;;;;5012920;28;19945;-79
2023/02/05 02:19:37;;;;;;;;;;;0.30;95.80;;;;;;5015393;28;19910;-80
2023/02/05 02:22:28;;;;;;;;;;;0.30;95.80;;;;;;4998975;28;19965;-79
2023/02/05 02:25:12;;;;;;;;;;;0.20;95.80;;;;;;5016609;28;19969;-78
2023/02/05 02:27:44;;;;;;;;;;;0.30;95.90;;;;;;4998934;28;19912;-78
2023/02/05 02:30:16;;;;;;;;;;;0.30;95.70;;;;;;4999066;28;19914;-80
2023/02/05 02:33:05;;;;;;;;;;;0.30;95.80;;;;;;5019487;28;19981;-77
2023/02/05 02:35:50;;;;;;;;;;;0.40;95.70;;;;;;5008025;28;19913;-78
2023/02/05 02:38:20;;;;;;;;;;;0.40;95.60;;;;;;5017422;28;19913;-77
2023/02/05 02:40:49;;;;;;;;;;;0.40;95.50;;;;;;5038379;28;19908;-78
2023/02/05 02:43:17;;;;;;;;;;;0.50;95.70;;;;;;5002229;28;19961;-79
2023/02/05 02:45:50;;;;;;;;;;;0.40;95.40;;;;;;5009681;28;19909;-78
2023/02/05 02:48:16;;;;;;;;;;;0.50;95.40;;;;;;5018011;28;19918;-78
2023/02/05 02:50:44;;;;;;;;;;;0.40;95.40;;;;;;5014153;28;19939;-78
2023/02/05 02:53:15;;;;;;;;;;;0.40;95.40;;;;;;5030797;28;19958;-80
2023/02/05 02:55:42;;;;;;;;;;;0.40;95.50;;;;;;5029776;28;19914;-78
2023/02/05 02:58:10;;;;;;;;;;;0.40;95.50;;;;;;5031953;28;19936;-78
2023/02/05 03:00:38;;;;;;;;;;;0.30;95.30;;;;;;5013938;28;19909;-78
2023/02/05 03:03:05;;;;;;;;;;;0.30;95.30;;;;;;5030954;28;19913;-78
2023/02/05 03:05:32;;;;;;;;;;;0.30;95.50;;;;;;5032073;28;19910;-79
2023/02/05 03:08:01;;;;;;;;;;;0.30;95.50;;;;;;5034996;28;19910;-77
2023/02/05 03:10:36;;;;;;;;;;;0.40;95.60;;;;;;5034082;28;19940;-78
2023/02/05 03:13:01;;;;;;;;;;;0.40;95.60;;;;;;5032369;28;19910;-77
2023/02/05 03:15:27;;;;;;;;;;;0.40;95.60;;;;;;5028961;28;19921;-78
2023/02/05 03:17:53;;;;;;;;;;;0.40;95.60;;;;;;5030093;28;20441;-80
2023/02/05 03:20:21;;;;;;;;;;;0.40;95.70;;;;;;5032829;28;19949;-79
2023/02/05 03:22:47;;;;;;;;;;;0.50;95.80;;;;;;5031972;28;19909;-79
2023/02/05 03:25:13;;;;;;;;;;;0.50;95.70;;;;;;5028650;28;19920;-77
2023/02/05 03:27:39;;;;;;;;;;;0.50;95.60;;;;;;5031924;28;19897;-77
2023/02/05 03:30:05;;;;;;;;;;;0.50;95.60;;;;;;5036210;28;19916;-78
2023/02/05 03:32:49;;;;;;;;;;;0.50;95.60;;;;;;5036766;28;19917;-77
2023/02/05 03:35:30;;;;;;;;;;;0.50;95.60;;;;;;5030179;28;19914;-78
2023/02/05 03:38:06;;;;;;;;;;;0.40;95.60;;;;;;5014979;28;19947;-78
2023/02/05 03:40:35;;;;;;;;;;;0.40;95.60;;;;;;5015000;28;19953;-78
2023/02/05 03:43:13;;;;;;;;;;;0.30;95.70;;;;;;5012063;28;19917;-78
2023/02/05 03:45:38;;;;;;;;;;;0.20;95.80;;;;;;5010061;28;19925;-78
2023/02/05 03:48:23;;;;;;;;;;;0.20;96.10;;;;;;4986390;28;20417;-81
2023/02/05 03:50:52;;;;;;;;;;;0.10;96.20;;;;;;4984384;28;19997;-79
2023/02/05 03:53:26;;;;;;;;;;;0.10;96.30;;;;;;4987052;28;19910;-79
2023/02/05 03:55:55;;;;;;;;;;;0.10;96.40;;;;;;5002612;28;19910;-80
2023/02/05 03:58:41;;;;;;;;;;;0.00;96.50;;;;;;4999859;28;20354;-80
2023/02/05 04:01:08;;;;;;;;;;;0.00;96.90;;;;;;4989070;28;19913;-79
2023/02/05 04:03:34;;;;;;;;;;;0.00;96.80;;;;;;5016815;28;19985;-80
2023/02/05 04:06:00;;;;;;;;;;;0.00;96.90;;;;;;5017566;28;19910;-81
2023/02/05 04:08:25;;;;;;;;;;;-0.10;97.00;;;;;;5016924;28;19913;-80
2023/02/05 04:10:51;;;;;;;;;;;-0.10;97.10;;;;;;5018223;28;19920;-78
2023/02/05 04:13:16;;;;;;;;;;;-0.10;97.30;;;;;;5014781;28;19961;-82
2023/02/05 04:15:42;;;;;;;;;;;-0.10;97.40;;;;;;5008961;28;19913;-82
2023/02/05 04:18:07;;;;;;;;;;;-0.10;97.60;;;;;;4980142;28;19965;-81
2023/02/05 04:20:33;;;;;;;;;;;-0.10;97.70;;;;;;4997564;28;19957;-82
2023/02/05 04:22:59;;;;;;;;;;;-0.20;97.90;;;;;;5015907;28;19910;-81
2023/02/05 04:25:24;;;;;;;;;;;-0.20;98.10;;;;;;5017858;28;20296;-82
2023/02/05 04:27:50;;;;;;;;;;;-0.20;98.40;;;;;;5016654;28;19910;-81
2023/02/05 04:30:15;;;;;;;;;;;-0.30;98.50;;;;;;4998707;28;19913;-79
2023/02/05 04:32:41;;;;;;;;;;;-0.30;98.80;;;;;;4983289;28;20583;-80
2023/02/05 04:35:06;;;;;;;;;;;-0.30;98.90;;;;;;4991462;28;19906;-79
2023/02/05 04:37:32;;;;;;;;;;;-0.30;99.20;;;;;;4988702;28;20013;-81
2023/02/05 04:39:57;;;;;;;;;;;-0.30;99.40;;;;;;4979114;28;20450;-80
2023/02/05 04:42:23;;;;;;;;;;;-0.40;99.70;;;;;;4977363;28;19917;-81
2023/02/05 04:44:49;;;;;;;;;;;-0.40;99.90;;;;;;5017961;28;20420;-82
2023/02/05 04:47:14;;;;;;;;;;;-0.40;99.90;;;;;;4981703;28;20020;-82
2023/02/05 04:49:40;;;;;;;;;;;-0.40;99.90;;;;;;4980956;28;19921;-79
2023/02/05 04:52:06;;;;;;;;;;;-0.40;99.90;;;;;;4995032;28;19920;-79
2023/02/05 04:54:31;;;;;;;;;;;-0.40;99.90;;;;;;5013763;28;19917;-78
2023/02/05 04:56:57;;;;;;;;;;;-0.40;99.90;;;;;;5012932;28;19965;-77
2023/02/05 04:59:22;;;;;;;;;;;-0.40;99.90;;;;;;5008090;28;19914;-80
2023/02/05 05:01:48;;;;;;;;;;;-0.40;99.90;;;;;;4991616;28;19928;-79
2023/02/05 05:04:13;;;;;;;;;;;-0.50;99.90;;;;;;5007745;28;19914;-78
2023/02/05 05:06:39;;;;;;;;;;;-0.50;99.90;;;;;;4990084;28;19916;-78
2023/02/05 05:09:04;;;;;;;;;;;-0.50;99.90;;;;;;5017855;28;20001;-78
2023/02/05 05:11:30;;;;;;;;;;;-0.50;99.90;;;;;;5013376;28;19914;-79
2023/02/05 05:13:56;;;;;;;;;;;-0.50;99.90;;;;;;5001933;28;19917;-77
2023/02/05 05:16:21;;;;;;;;;;;-0.50;99.90;;;;;;5002958;28;19918;-80
2023/02/05 05:18:49;;;;;;;;;;;-0.50;99.90;;;;;;4996433;28;19910;-79
2023/02/05 05:21:15;;;;;;;;;;;-0.50;99.90;;;;;;4998993;28;19910;-79
2023/02/05 05:23:40;;;;;;;;;;;-0.40;99.90;;;;;;4998071;28;19910;-78
2023/02/05 05:26:07;;;;;;;;;;;-0.40;99.90;;;;;;5009472;28;19913;-79
2023/02/05 05:28:33;;;;;;;;;;;-0.40;99.90;;;;;;5002820;28;20291;-78
2023/02/05 05:31:04;;;;;;;;;;;-0.40;99.90;;;;;;4998062;28;20426;-78
2023/02/05 05:33:29;;;;;;;;;;;-0.40;99.90;;;;;;4981393;28;19957;-79
2023/02/05 05:35:55;;;;;;;;;;;-0.50;99.90;;;;;;4998366;28;19914;-81
2023/02/05 05:38:21;;;;;;;;;;;-0.40;99.90;;;;;;4984410;28;19941;-81
2023/02/05 05:43:46;;;;;;;;;;;-0.40;99.90;;;;;;5004202;28;19921;-82
2023/02/05 05:46:12;;;;;;;;;;;-0.40;99.90;;;;;;5002727;28;19910;-80
2023/02/05 05:48:37;;;;;;;;;;;-0.40;99.90;;;;;;5007395;28;19910;-80
2023/02/05 05:51:03;;;;;;;;;;;-0.40;99.90;;;;;;5023865;28;20262;-80
2023/02/05 05:53:30;;;;;;;;;;;-0.40;99.90;;;;;;5023235;28;20099;-82
2023/02/05 05:55:55;;;;;;;;;;;-0.50;99.90;;;;;;5020187;28;19913;-81
2023/02/05 05:58:21;;;;;;;;;;;-0.40;99.90;;;;;;5021805;28;19940;-82
2023/02/05 06:00:46;;;;;;;;;;;-0.50;99.90;;;;;;5019005;28;19909;-82
2023/02/05 06:03:12;;;;;;;;;;;-0.50;99.90;;;;;;5002551;28;20290;-81
2023/02/05 06:05:38;;;;;;;;;;;-0.50;99.90;;;;;;5017098;28;19917;-78
2023/02/05 06:08:04;;;;;;;;;;;-0.60;99.90;;;;;;4999909;28;19921;-79
2023/02/05 06:10:31;;;;;;;;;;;-0.60;99.90;;;;;;5018082;28;19922;-79
2023/02/05 06:12:56;;;;;;;;;;;-0.50;99.90;;;;;;4998353;28;19929;-80
2023/02/05 06:15:22;;;;;;;;;;;-0.50;99.90;;;;;;5018779;28;19901;-79
2023/02/05 06:17:48;;;;;;;;;;;-0.40;99.90;;;;;;5037959;28;19929;-80
2023/02/05 06:20:13;;;;;;;;;;;-0.30;99.90;;;;;;5037725;28;19917;-79
2023/02/05 06:22:39;;;;;;;;;;;-0.30;99.90;;;;;;5026407;28;19916;-82
2023/02/05 06:25:05;;;;;;;;;;;-0.20;99.90;;;;;;5004106;28;19909;-81
2023/02/05 06:27:31;;;;;;;;;;;-0.10;99.90;;;;;;5021406;28;19910;-81
2023/02/05 06:29:56;;;;;;;;;;;0.00;99.90;;;;;;5018731;28;19920;-80
2023/02/05 06:32:22;;;;;;;;;;;0.10;99.90;;;;;;5026894;28;19984;-78
2023/02/05 06:34:47;;;;;;;;;;;0.10;99.90;;;;;;5036669;28;19913;-83
2023/02/05 06:37:13;;;;;;;;;;;0.20;99.90;;;;;;4989428;28;19928;-83
2023/02/05 06:39:38;;;;;;;;;;;0.20;99.90;;;;;;4972633;28;19933;-84
2023/02/05 06:42:07;;;;;;;;;;;0.30;99.70;;;;;;5006277;28;19942;-83
2023/02/05 06:44:34;;;;;;;;;;;0.30;99.60;;;;;;4998501;28;19977;-83
2023/02/05 06:46:59;;;;;;;;;;;0.30;99.60;;;;;;4993341;28;19910;-84
2023/02/05 06:49:25;;;;;;;;;;;0.30;99.40;;;;;;4986339;28;19981;-84
2023/02/05 06:51:53;;;;;;;;;;;0.30;99.30;;;;;;4985297;28;19910;-82
2023/02/05 06:54:22;;;;;;;;;;;0.30;99.30;;;;;;5003088;28;19909;-84
2023/02/05 06:56:48;;;;;;;;;;;0.20;99.20;;;;;;5002211;28;19976;-83
2023/02/05 06:59:13;;;;;;;;;;;0.10;99.40;;;;;;5001672;28;19937;-83
2023/02/05 07:01:47;;;;;;;;;;;0.10;99.50;;;;;;4983844;28;20323;-82
2023/02/05 07:04:32;;;;;;;;;;;;;;;;;;;;;
2023/02/05 07:06:58;;;;;;;;;;;0.10;99.90;;;;;;4988347;28;19985;-83
2023/02/05 07:09:24;;;;;;;;;;;0.20;99.90;;;;;;5001954;28;19957;-82
2023/02/05 07:11:53;;;;;;;;;;;0.20;99.90;;;;;;5000140;28;19972;-83
2023/02/05 07:14:19;;;;;;;;;;;0.20;99.90;;;;;;4991409;28;19909;-83
2023/02/05 07:16:44;;;;;;;;;;;0.20;99.80;;;;;;5001351;28;19945;-82
2023/02/05 07:19:10;;;;;;;;;;;0.30;99.80;;;;;;4982593;28;19910;-82
2023/02/05 07:21:35;;;;;;;;;;;0.30;99.70;;;;;;5000398;28;19914;-82
2023/02/05 07:24:01;;;;;;;;;;;0.40;99.50;;;;;;4999910;28;19914;-83
2023/02/05 07:26:27;;;;;;;;;;;0.50;99.30;;;;;;5008907;28;19913;-83
2023/02/05 07:28:53;;;;;;;;;;;0.50;99.00;;;;;;4986534;28;20041;-83
2023/02/05 07:31:21;;;;;;;;;;;0.50;99.00;;;;;;4986166;28;19929;-82
2023/02/05 07:33:47;;;;;;;;;;;0.60;99.00;;;;;;5023690;28;19924;-81
2023/02/05 07:36:15;;;;;;;;;;;0.60;98.90;;;;;;5036015;28;19960;-81
2023/02/05 07:38:45;;;;;;;;;;;0.70;98.90;;;;;;5018439;28;19909;-81
2023/02/05 07:41:11;;;;;;;;;;;0.70;98.80;;;;;;5002064;28;19909;-81
2023/02/05 07:43:43;;;;;;;;;;;0.80;98.50;;;;;;5025100;28;19905;-80
2023/02/05 07:46:14;;;;;;;;;;;0.80;98.50;;;;;;5006042;28;20358;-83
2023/02/05 07:48:48;;;;;;;;;;;0.70;98.40;;;;;;5000690;28;19996;-82
2023/02/05 07:51:37;;;;;;;;;;;0.70;98.30;;;;;;5018976;28;20000;-83
2023/02/05 07:54:31;;;;;;;;;;;0.70;98.40;;;;;;4984402;28;19921;-84
2023/02/05 07:57:26;;;;;;;;;;;0.70;98.50;;;;;;4966823;28;19910;-84
2023/02/05 07:59:58;;;;;;;;;;;0.70;98.20;;;;;;5008356;28;19921;-83
2023/02/05 08:02:26;;;;;;;;;;;0.80;98.20;;;;;;4989137;28;19914;-83
2023/02/05 08:05:02;;;;;;;;;;;0.80;98.20;;;;;;4997597;28;19914;-83
2023/02/05 08:08:00;;;;;;;;;;;0.90;98.20;;;;;;5000257;28;20030;-83
2023/02/05 08:14:00;;;;;;;;;;;1.20;97.60;;;;;;4968182;28;19921;-83
2023/02/05 08:16:30;;;;;;;;;;;1.40;97.70;;;;;;4952328;28;19914;-83
2023/02/05 08:19:02;;;;;;;;;;;1.50;97.40;;;;;;4977905;28;19914;-81
2023/02/05 08:21:44;;;;;;;;;;;1.60;97.20;;;;;;4991072;28;19995;-81
2023/02/05 08:24:28;;;;;;;;;;;2.10;97.40;;;;;;4978727;28;19945;-81
2023/02/05 08:27:06;;;;;;;;;;;3.40;95.30;;;;;;4988187;28;19914;-83
2023/02/05 08:29:54;;;;;;;;;;;3.70;93.00;;;;;;4955956;29;19998;-83
2023/02/05 08:42:23;;;;;;;;;;;3.40;91.60;;;;;;4879824;29;20003;-83
2023/02/05 08:45:08;;;;;;;;;;;3.50;91.50;;;;;;4897380;29;19923;-85
2023/02/05 08:47:52;;;;;;;;;;;3.40;91.20;;;;;;4883111;29;19983;-83
2023/02/05 08:51:03;;;;;;;;;;;;;;;;;;;;;
2023/02/05 08:54:28;;;;;;;;;;;;;;;;;;;;;
2023/02/05 08:59:58;;;;;;;;;;;3.00;91.30;;;;;;4808932;30;19990;-82
2023/02/05 09:13:59;;;;;;;;;;;3.80;90.40;;;;;;5154710;23;19937;-83
2023/02/05 09:22:45;;;;;;;;;;;4.30;89.30;;;;;;4921619;29;19927;-86
2023/02/05 09:25:11;;;;;;;;;;;4.50;89.00;;;;;;4908610;29;19915;-82
2023/02/05 09:27:41;;;;;;;;;;;4.50;87.30;;;;;;4924529;29;19929;-82
2023/02/05 09:30:50;;;;;;;;;;;4.50;87.70;;;;;;4923527;29;19919;-81
2023/02/05 09:33:39;;;;;;;;;;;4.50;88.00;;;;;;4925161;29;19915;-80
2023/02/05 09:36:25;;;;;;;;;;;4.50;88.30;;;;;;4947450;29;20304;-82
2023/02/05 09:38:52;;;;;;;;;;;4.60;88.70;;;;;;4954656;29;20391;-81
2023/02/05 09:41:21;;;;;;;;;;;4.70;88.10;;;;;;4982411;28;20286;-82
2023/02/05 09:44:05;;;;;;;;;;;4.90;88.20;;;;;;5007621;28;19993;-82
2023/02/05 09:46:40;;;;;;;;;;;5.20;88.50;;;;;;5018158;28;19960;-81
2023/02/05 09:49:20;;;;;;;;;;;6.00;87.90;;;;;;5013921;28;20012;-81
2023/02/05 09:51:48;;;;;;;;;;;6.90;84.80;;;;;;5006378;28;19941;-82
2023/02/05 09:54:21;;;;;;;;;;;7.10;80.90;;;;;;5016705;28;20410;-82
2023/02/05 09:56:50;;;;;;;;;;;6.90;79.70;;;;;;5011941;28;20021;-83
2023/02/05 09:59:18;;;;;;;;;;;7.00;79.80;;;;;;4983400;28;20267;-83
2023/02/05 10:01:56;;;;;;;;;;;7.50;80.00;;;;;;4985316;28;19965;-83
2023/02/05 10:04:26;;;;;;;;;;;7.60;77.50;;;;;;4993842;28;19933;-82
2023/02/05 10:06:57;;;;;;;;;;;7.40;77.00;;;;;;5010767;28;19918;-82
2023/02/05 10:09:35;;;;;;;;;;;7.30;76.20;;;;;;5022686;28;20177;-82
2023/02/05 10:12:19;;;;;;;;;;;7.10;76.10;;;;;;5024737;28;19914;-82
2023/02/05 10:15:03;;;;;;;;;;;7.10;75.90;;;;;;5037258;28;19909;-80
2023/02/05 10:17:49;;;;;;;;;;;6.90;74.70;;;;;;5009422;28;19921;-80
2023/02/05 10:20:25;;;;;;;;;;;6.60;75.60;;;;;;4996352;28;19920;-82
2023/02/05 10:22:50;;;;;;;;;;;6.40;76.00;;;;;;5010622;28;19910;-81
2023/02/05 10:25:25;;;;;;;;;;;6.00;76.90;;;;;;5009802;28;19929;-80
2023/02/05 10:28:02;;;;;;;;;;;5.80;78.40;;;;;;5007902;28;19950;-81
2023/02/05 10:30:34;;;;;;;;;;;5.60;78.30;;;;;;5020477;28;19929;-80
2023/02/05 10:33:06;;;;;;;;;;;5.50;78.70;;;;;;5008312;28;20194;-82
2023/02/05 10:35:54;;;;;;;;;;;5.40;80.20;;;;;;4984162;28;19914;-83
2023/02/05 10:38:23;;;;;;;;;;;5.80;80.90;;;;;;5012486;28;19925;-81
2023/02/05 10:40:53;;;;;;;;;;;6.20;79.40;;;;;;5004594;28;19914;-83
2023/02/05 10:43:29;;;;;;;;;;;6.40;78.80;;;;;;5007780;28;19910;-83
2023/02/05 10:45:55;;;;;;;;;;;6.60;78.40;;;;;;5001106;28;19922;-81
2023/02/05 10:48:41;;;;;;;;;;;6.90;73.40;;;;;;4998011;28;19915;-82
2023/02/05 10:51:10;;;;;;;;;;;6.90;74.10;;;;;;4996047;28;19918;-82
2023/02/05 10:53:35;;;;;;;;;;;7.10;73.70;;;;;;4996241;28;19929;-82
2023/02/05 10:56:02;;;;;;;;;;;7.10;72.40;;;;;;5022342;28;19917;-81
2023/02/05 10:58:31;;;;;;;;;;;7.10;72.60;;;;;;5019722;28;20362;-83
2023/02/05 11:00:57;;;;;;;;;;;7.10;72.00;;;;;;5018348;28;19961;-83
2023/02/05 11:03:23;;;;;;;;;;;7.00;72.00;;;;;;5012481;28;19910;-80
2023/02/05 11:05:49;;;;;;;;;;;7.00;71.40;;;;;;5015334;28;19920;-83
2023/02/05 11:08:30;;;;;;;;;;;7.00;72.30;;;;;;4989095;28;19994;-82
2023/02/05 11:11:35;;;;;;;;;;;7.10;72.50;;;;;;5012467;28;19922;-82
2023/02/05 11:14:30;;;;;;;;;;;7.20;71.60;;;;;;5003586;28;19918;-83
2023/02/05 11:17:30;;;;;;;;;;;7.30;71.60;;;;;;4968080;28;19917;-84
2023/02/05 11:20:13;;;;;;;;;;;;;;;;;;;;;
2023/02/05 11:23:03;;;;;;;;;;;7.20;70.00;;;;;;4996229;28;19974;-83
2023/02/05 11:25:29;;;;;;;;;;;7.10;69.90;;;;;;5000059;28;19909;-83
2023/02/05 11:27:56;;;;;;;;;;;6.90;71.80;;;;;;4992262;28;19924;-84
2023/02/05 11:30:24;;;;;;;;;;;6.80;72.30;;;;;;5019239;28;20335;-83
2023/02/05 11:32:51;;;;;;;;;;;6.70;70.30;;;;;;5005417;28;19924;-85
2023/02/05 11:35:19;;;;;;;;;;;6.50;70.60;;;;;;5003299;28;20365;-84
2023/02/05 11:37:46;;;;;;;;;;;6.40;71.40;;;;;;5000199;28;20282;-85
2023/02/05 11:40:26;;;;;;;;;;;6.30;72.90;;;;;;4994700;28;19983;-82
2023/02/05 11:43:08;;;;;;;;;;;6.30;72.40;;;;;;5014236;28;19919;-82
2023/02/05 11:45:49;;;;;;;;;;;6.30;73.30;;;;;;5013295;28;21593;-83
2023/02/05 11:48:21;;;;;;;;;;;6.30;74.10;;;;;;4986758;28;19925;-83
2023/02/05 11:50:59;;;;;;;;;;;6.30;73.10;;;;;;4981270;28;19918;-85
2023/02/05 11:53:24;;;;;;;;;;;6.20;73.20;;;;;;5001510;28;19953;-80
2023/02/05 11:55:52;;;;;;;;;;;6.20;73.80;;;;;;5021681;28;19927;-81
2023/02/05 11:58:20;;;;;;;;;;;6.20;73.50;;;;;;4988215;28;19970;-82
2023/02/05 12:00:50;;;;;;;;;;;6.10;72.80;;;;;;4965785;28;19910;-81
2023/02/05 12:03:19;;;;;;;;;;;6.00;74.20;;;;;;4993705;28;19992;-81
2023/02/05 12:05:49;;;;;;;;;;;5.90;75.20;;;;;;5014247;28;20008;-81
2023/02/05 12:08:16;;;;;;;;;;;5.90;75.60;;;;;;5015909;28;20012;-81
2023/02/05 12:10:45;;;;;;;;;;;5.80;76.10;;;;;;4989954;28;19914;-83
2023/02/05 12:13:22;;;;;;;;;;;5.70;76.60;;;;;;4982765;28;19925;-83
2023/02/05 12:15:56;;;;;;;;;;;5.60;77.60;;;;;;4979163;28;19914;-83
2023/02/05 12:18:56;;;;;;;;;;;5.50;78.60;;;;;;4978966;28;20303;-82
2023/02/05 12:25:02;;;;;;;;;;;5.40;78.70;;;;;;4994884;28;19915;-83
2023/02/05 12:30:58;;;;;;;;;;;5.40;80.20;;;;;;5015497;28;19945;-80
2023/02/05 12:33:49;;;;;;;;;;;5.50;77.00;;;;;;4994137;28;19985;-83
2023/02/05 12:36:39;;;;;;;;;;;5.40;76.60;;;;;;5004073;28;19920;-81
2023/02/05 12:39:30;;;;;;;;;;;5.30;76.70;;;;;;4982870;28;20354;-81
2023/02/05 12:42:06;;;;;;;;;;;5.20;77.30;;;;;;4966509;28;20028;-83
2023/02/05 12:44:50;;;;;;;;;;;5.00;77.60;;;;;;5001170;28;19914;-85
2023/02/05 12:47:16;;;;;;;;;;;4.90;78.60;;;;;;4994360;28;19913;-83
2023/02/05 13:10:51;;;;;;;;;;;4.90;82.00;;;;;;4114141;23;19925;-83
2023/02/05 13:37:43;;;;;;;;;;;4.70;87.20;;;;;;5966256;23;19909;-84
2023/02/05 14:18:45;;;;;;;;;;;;;;;;;;;;;
2023/02/05 14:24:46;;;;;;;;;;;4.10;96.30;;;;;;4985511;28;19914;-82
2023/02/05 14:27:33;;;;;;;;;;;4.10;96.60;;;;;;4988875;28;19910;-81
2023/02/05 14:30:17;;;;;;;;;;;4.10;96.80;;;;;;5000614;28;19910;-80
2023/02/05 14:33:19;;;;;;;;;;;4.10;97.00;;;;;;5002877;28;19946;-79
2023/02/05 14:39:31;;;;;;;;;;;4.20;97.30;;;;;;4984966;28;20377;-81
2023/02/05 14:42:16;;;;;;;;;;;4.20;97.40;;;;;;4983860;28;19917;-81
2023/02/05 14:44:43;;;;;;;;;;;4.10;97.60;;;;;;4984830;28;19941;-81
2023/02/05 14:47:20;;;;;;;;;;;4.20;97.90;;;;;;4976119;28;19914;-80
2023/02/05 14:49:47;;;;;;;;;;;4.20;97.80;;;;;;4992504;28;19926;-81
2023/02/05 14:52:23;;;;;;;;;;;4.20;98.00;;;;;;4996837;28;19910;-83
2023/02/05 14:54:53;;;;;;;;;;;4.20;98.10;;;;;;4966292;28;20288;-84
2023/02/05 14:57:24;;;;;;;;;;;4.20;98.10;;;;;;4989593;28;19911;-83
2023/02/05 14:59:55;;;;;;;;;;;4.20;98.10;;;;;;4984026;28;20276;-81
2023/02/05 15:02:40;;;;;;;;;;;4.20;98.40;;;;;;4986578;28;20332;-82
2023/02/05 15:05:13;;;;;;;;;;;4.20;98.50;;;;;;4981634;28;19910;-81
2023/02/05 15:07:38;;;;;;;;;;;4.20;98.60;;;;;;4976749;28;19925;-83
2023/02/05 15:10:11;;;;;;;;;;;4.20;98.70;;;;;;4982723;28;19914;-82
2023/02/05 15:13:00;;;;;;;;;;;4.20;98.80;;;;;;5004857;28;19985;-82
2023/02/05 15:15:31;;;;;;;;;;;4.20;98.80;;;;;;5003736;28;19914;-82
2023/02/05 15:18:19;;;;;;;;;;;4.20;99.00;;;;;;4993904;28;19918;-82
2023/02/05 15:20:50;;;;;;;;;;;4.20;99.10;;;;;;4985332;28;20018;-81
2023/02/05 15:23:20;;;;;;;;;;;4.20;99.20;;;;;;4996825;28;19913;-81
2023/02/05 15:25:54;;;;;;;;;;;4.10;99.20;;;;;;5007267;28;19910;-83
2023/02/05 15:28:22;;;;;;;;;;;4.10;99.50;;;;;;5006275;28;19897;-82
2023/02/05 15:30:54;;;;;;;;;;;4.10;99.60;;;;;;5006816;28;19914;-82
2023/02/05 15:33:31;;;;;;;;;;;4.10;99.80;;;;;;4985004;28;19914;-82
2023/02/05 15:35:57;;;;;;;;;;;4.10;99.80;;;;;;4989768;28;20186;-81
2023/02/05 15:38:23;;;;;;;;;;;3.90;99.90;;;;;;5006020;28;19914;-82
2023/02/05 15:40:50;;;;;;;;;;;3.90;99.90;;;;;;5014315;28;19913;-81
2023/02/05 15:43:15;;;;;;;;;;;3.80;99.90;;;;;;5010916;28;19926;-82
2023/02/05 15:45:43;;;;;;;;;;;3.70;99.90;;;;;;5012767;28;19909;-82
2023/02/05 15:48:09;;;;;;;;;;;3.70;99.90;;;;;;5001974;28;19944;-82
2023/02/05 15:50:42;;;;;;;;;;;3.60;99.90;;;;;;5014381;28;19909;-82
2023/02/05 15:53:19;;;;;;;;;;;3.70;99.90;;;;;;5029957;28;19929;-82
2023/02/05 15:55:50;;;;;;;;;;;3.60;99.90;;;;;;4962130;29;20403;-82
2023/02/05 15:58:18;;;;;;;;;;;3.60;99.90;;;;;;4962898;28;19937;-83
2023/02/05 16:00:44;;;;;;;;;;;3.50;99.90;;;;;;4981294;28;19915;-82
2023/02/05 16:03:22;;;;;;;;;;;3.50;99.90;;;;;;4990132;28;19960;-81
2023/02/05 16:05:50;;;;;;;;;;;3.50;99.90;;;;;;4999983;28;19909;-82
2023/02/05 16:08:17;;;;;;;;;;;3.50;99.90;;;;;;5000570;28;19914;-84
2023/02/05 16:10:50;;;;;;;;;;;3.50;99.90;;;;;;4985115;28;19925;-82
2023/02/05 16:13:19;;;;;;;;;;;3.50;99.90;;;;;;4980204;28;19973;-83
2023/02/05 16:15:50;;;;;;;;;;;3.50;99.90;;;;;;4963068;28;19918;-81
2023/02/05 16:18:35;;;;;;;;;;;3.50;99.90;;;;;;4980330;28;19918;-84
2023/02/05 16:21:04;;;;;;;;;;;3.50;99.90;;;;;;4982175;28;19915;-83
2023/02/05 16:23:32;;;;;;;;;;;3.50;99.90;;;;;;4966272;28;19921;-84
2023/02/05 16:26:15;;;;;;;;;;;3.40;99.90;;;;;;4993580;28;19938;-80
2023/02/05 16:28:47;;;;;;;;;;;3.40;99.90;;;;;;5013307;28;19914;-81
2023/02/05 16:31:19;;;;;;;;;;;3.40;99.90;;;;;;5002062;28;19933;-79
2023/02/05 16:34:11;;;;;;;;;;;3.40;99.90;;;;;;5001536;28;19933;-84
2023/02/05 16:36:37;;;;;;;;;;;3.30;99.90;;;;;;4998837;28;19921;-82
2023/02/05 16:39:06;;;;;;;;;;;3.20;99.90;;;;;;4997933;28;20003;-82
2023/02/05 16:44:38;;;;;;;;;;;2.90;99.90;;;;;;4945528;28;19922;-82
2023/02/05 16:47:25;;;;;;;;;;;3.00;99.90;;;;;;4979319;28;20001;-82
2023/02/05 16:49:52;;;;;;;;;;;2.90;99.90;;;;;;4985460;28;20362;-82
2023/02/05 16:52:29;;;;;;;;;;;2.80;99.90;;;;;;5002873;28;19964;-82
2023/02/05 16:55:07;;;;;;;;;;;2.70;99.90;;;;;;5004485;28;19914;-83
2023/02/05 16:58:03;;;;;;;;;;;2.60;99.90;;;;;;4993172;28;19914;-85
2023/02/05 17:00:34;;;;;;;;;;;2.60;99.90;;;;;;4973509;28;19996;-83
2023/02/05 17:14:46;;;;;;;;;;;2.70;99.90;;;;;;4962346;28;19926;-82
2023/02/05 17:46:53;;;;;;;;;;;;;;;;;;;;;
2023/02/05 17:52:38;;;;;;;;;;;2.60;99.90;;;;;;4973406;28;19972;-83
2023/02/05 17:58:18;;;;;;;;;;;2.50;99.90;;;;;;5006875;28;19928;-81
2023/02/05 18:00:43;;;;;;;;;;;2.50;99.90;;;;;;5006405;28;19913;-82
2023/02/05 18:03:09;;;;;;;;;;;2.40;99.90;;;;;;5002671;28;20000;-82